Froid, Montana
Current Conditions -  °F | °C
As of 10:52 AM on Saturday 25 Oct 2014 (Local Time) from KISN Reporting Station
Overcast Overcast  
Wind Chill: 52°   Ceiling: 8000
Heat Index: 52°   Visibility: 10mi
Dew Point: 32°   Wind: 8mph
Humidity: 47%   Direction: 170°S
Pressure: 30.11"   Gusts: NA
Location:  48.33°N, 104.5°W
Report Text: KISN 251652Z AUTO 17007KT 10SM OVC080 11/00 A3011 RMK AO2 SLP209 T01110000
Loading
Personal Weather Stations






























Interactive Weather Map New forecast layout! Learn more

10-Day Weather Forecast

Advertisements
Track Severe Weather on mobile